Concerto — JJ3855 — position and weather

sailwx.info

Track history (hours):
 
Tides and Currents Weather Stations Pressure Air Temp Water Temp Dewpoint Dewpoint Depression Visibility Wind Speed Wind Dir Waves Ship Positions

Concerto

Last reported at 2017-May-24 17:28 UTC. Time now 2017-May-24 17:44 UTC.
Position N 34°41' E 135°11'.

Length 74 m; draft 3 m.

Type: Passenger vessel. MMSI: 431000448.

Date/timePositionNaut miles runAvg speedWind from/ knotsBaromVisibWave heightAir tempDewpointWater temp
2017-May-24 17:28N 34°41' E 135°11'0 0.0
2017-May-24 16:58N 34°41' E 135°11'0 0.0
2017-May-24 16:28N 34°41' E 135°11'0 0.0
2017-May-24 15:58N 34°41' E 135°11'0 0.0
2017-May-24 15:28N 34°41' E 135°11'0 0.0
2017-May-24 14:58N 34°41' E 135°11'0 0.0
2017-May-24 14:28N 34°41' E 135°11'0 0.0
2017-May-24 13:28N 34°41' E 135°11'0 0.0
2017-May-24 12:58N 34°41' E 135°11'0 0.0
2017-May-24 12:28N 34°41' E 135°11'0 0.2
2017-May-24 12:00N 34°41' E 135°11'4 7.1
2017-May-24 11:30N 34°37' E 135°10'4 7.8
2017-May-24 11:00N 34°37' E 135°05'4 7.6
2017-May-24 10:30N 34°38' E 135°09'3 6.5
2017-May-24 10:00N 34°41' E 135°11'0 0.0
2017-May-24 09:26N 34°41' E 135°11'2 4.9
2017-May-24 09:00N 34°39' E 135°11'4 7.7
2017-May-24 08:30N 34°37' E 135°07'4 8.4
2017-May-24 08:00N 34°39' E 135°11'1 2.9
2017-May-24 07:30N 34°41' E 135°11'0 0.0
2017-May-24 07:00N 34°41' E 135°11'3 5.3
2017-May-24 06:30N 34°38' E 135°11'1 1.3
2017-May-24 06:00N 34°38' E 135°10'3 5.7
2017-May-24 05:30N 34°41' E 135°11'0 0.0
2017-May-24 04:57N 34°41' E 135°11'2 4.3
2017-May-24 04:30N 34°39' E 135°11'4 8.3
2017-May-24 04:00N 34°37' E 135°07'3 5.0
2017-May-24 03:30N 34°38' E 135°10'3 6.1
2017-May-24 03:00N 34°41' E 135°11'0 0.0
2017-May-24 02:30N 34°41' E 135°11'0 0.0
2017-May-24 02:00N 34°41' E 135°11'0 0.0
2017-May-24 01:30N 34°41' E 135°11'0 0.0
2017-May-24 01:00N 34°41' E 135°11'0 0.0
2017-May-24 00:30N 34°41' E 135°11'0 0.0
2017-May-24 00:00N 34°41' E 135°11'0 0.0
2017-May-23 23:24N 34°41' E 135°11'0 0.0
2017-May-23 22:54N 34°41' E 135°11'0 0.0
2017-May-23 22:30N 34°41' E 135°11'0 0.0
2017-May-23 22:00N 34°41' E 135°11'0 0.0
2017-May-23 21:30N 34°41' E 135°11'0 0.0
2017-May-23 21:00N 34°41' E 135°11'0 0.0
2017-May-23 20:30N 34°41' E 135°11'0 0.0
2017-May-23 20:00N 34°41' E 135°11'0 0.0
2017-May-23 19:30N 34°41' E 135°11'0 0.0
2017-May-23 19:00N 34°41' E 135°11'0 0.0
2017-May-23 18:30N 34°41' E 135°11'0 0.0
2017-May-23 18:00N 34°41' E 135°11'0 0.0
2017-May-23 17:24N 34°41' E 135°11'0 0.0
2017-May-23 17:00N 34°41' E 135°11'0 0.0
2017-May-23 16:18N 34°41' E 135°11'0 0.0
2017-May-23 16:00N 34°41' E 135°11'0 0.0
2017-May-23 15:30N 34°41' E 135°11'0 0.0
2017-May-23 15:00N 34°41' E 135°11'0 0.0
2017-May-23 14:30N 34°41' E 135°11'0 0.0
2017-May-23 13:24N 34°41' E 135°11'0 0.0
2017-May-23 12:54N 34°41' E 135°11'0 0.0
2017-May-23 12:18N 34°41' E 135°11'0 0.9
2017-May-23 12:00N 34°41' E 135°11'4 7.9
2017-May-23 11:30N 34°37' E 135°08'3 5.3
2017-May-23 11:00N 34°37' E 135°05'4 8.7
2017-May-23 10:30N 34°38' E 135°10'3 5.2
2017-May-23 10:00N 34°41' E 135°11'0 0.0
2017-May-23 09:25N 34°41' E 135°11'3 6.5
2017-May-23 09:00N 34°38' E 135°10'2 4.5
2017-May-23 08:30N 34°37' E 135°08'4 8.0
2017-May-23 08:00N 34°40' E 135°11'1 1.8
2017-May-23 07:26N 34°41' E 135°11'0 0.0
2017-May-23 06:57N 34°41' E 135°11'3 6.2
2017-May-23 06:30N 34°38' E 135°11'1 1.2
2017-May-23 06:00N 34°38' E 135°10'3 5.8
2017-May-23 05:30N 34°41' E 135°11'0 0.0
2017-May-23 04:52N 34°41' E 135°11'2 5.7
2017-May-23 04:30N 34°39' E 135°11'4 8.2
2017-May-23 04:00N 34°37' E 135°07'3 6.4
2017-May-23 03:30N 34°38' E 135°10'3 5.1
2017-May-23 03:00N 34°41' E 135°11'0 0.0
2017-May-23 02:28N 34°41' E 135°11'0 0.0
2017-May-23 01:58N 34°41' E 135°11'0 0.0
2017-May-23 01:28N 34°41' E 135°11'0 0.0
2017-May-23 00:58N 34°41' E 135°11'0 0.0
2017-May-23 00:28N 34°41' E 135°11'0 0.0
2017-May-22 23:58N 34°41' E 135°11'0 0.0
2017-May-22 23:28N 34°41' E 135°11'0 0.0
2017-May-22 22:58N 34°41' E 135°11'0 0.0
2017-May-22 22:28N 34°41' E 135°11'0 0.0
2017-May-22 21:58N 34°41' E 135°11'0 0.0
2017-May-22 21:28N 34°41' E 135°11'0 0.0
2017-May-22 20:58N 34°41' E 135°11'0 0.0
2017-May-22 20:28N 34°41' E 135°11'0 0.0
2017-May-22 19:58N 34°41' E 135°11'0 0.0
2017-May-22 19:28N 34°41' E 135°11'0 0.0
2017-May-22 18:58N 34°41' E 135°11'0 0.0
2017-May-22 18:22N 34°41' E 135°11'0 0.0
2017-May-22 17:58N 34°41' E 135°11'0 0.0
2017-May-22 17:28N 34°41' E 135°11'0 0.0
2017-May-22 16:58N 34°41' E 135°11'0 0.0
2017-May-22 16:28N 34°41' E 135°11'0 0.0
2017-May-22 15:58N 34°41' E 135°11'0 0.0
2017-May-22 15:28N 34°41' E 135°11'0 0.0
2017-May-22 14:58N 34°41' E 135°11'0 0.0
2017-May-22 13:58N 34°41' E 135°11'0 0.0
2017-May-22 13:22N 34°41' E 135°11'0 0.0
2017-May-22 12:58N 34°41' E 135°11'0 0.0
2017-May-22 12:28N 34°41' E 135°11'0 0.3
2017-May-22 12:00N 34°41' E 135°11'4 7.5
2017-May-22 11:30N 34°37' E 135°09'3 6.3
2017-May-22 11:00N 34°37' E 135°06'4 7.7
2017-May-22 10:30N 34°38' E 135°10'3 5.8
2017-May-22 10:00N 34°41' E 135°11'0 0.0
2017-May-22 09:29N 34°41' E 135°11'2 4.9
2017-May-22 09:00N 34°39' E 135°11'3 6.1
2017-May-22 08:30N 34°37' E 135°07'4 8.4
2017-May-22 08:00N 34°40' E 135°11'1 2.0
2017-May-22 07:22N 34°41' E 135°11'0 0.0
2017-May-22 06:58N 34°41' E 135°11'3 5.8
2017-May-22 06:30N 34°38' E 135°11'0 1.0
2017-May-22 06:00N 34°38' E 135°10'3 5.5
2017-May-22 05:30N 34°41' E 135°11'0 0.0
2017-May-22 04:54N 34°41' E 135°11'2 4.7
2017-May-22 04:31N 34°39' E 135°11'4 8.0
2017-May-22 04:00N 34°37' E 135°07'3 5.9
2017-May-22 03:30N 34°38' E 135°10'3 5.2
2017-May-22 03:00N 34°41' E 135°11'0 0.0
2017-May-22 02:27N 34°41' E 135°11'0 0.0
2017-May-22 01:57N 34°41' E 135°11'0 0.0
2017-May-22 01:15N 34°41' E 135°11'0 0.0
2017-May-22 00:57N 34°41' E 135°11'0 0.0
2017-May-22 00:27N 34°41' E 135°11'0 0.0
2017-May-21 23:57N 34°41' E 135°11'0 0.0
2017-May-21 23:21N 34°41' E 135°11'0 0.0
2017-May-21 22:57N 34°41' E 135°11'0 0.0
2017-May-21 22:09N 34°41' E 135°11'0 0.0
2017-May-21 21:57N 34°41' E 135°11'0 0.0
2017-May-21 21:27N 34°41' E 135°11'0 0.0
2017-May-21 20:51N 34°41' E 135°11'0 0.0
2017-May-21 20:27N 34°41' E 135°11'0 0.0
2017-May-21 19:57N 34°41' E 135°11'0 0.0
2017-May-21 19:09N 34°41' E 135°11'0 0.0
2017-May-21 18:57N 34°41' E 135°11'0 0.0
2017-May-21 18:27N 34°41' E 135°11'0 0.0
2017-May-21 17:57N 34°41' E 135°11'0 0.0
2017-May-21 17:27N 34°41' E 135°11'0 0.0
2017-May-21 16:45N 34°41' E 135°11'0 0.0
2017-May-21 16:27N 34°41' E 135°11'0 0.0
2017-May-21 15:51N 34°41' E 135°11'0 0.0
2017-May-21 15:27N 34°41' E 135°11'0 0.0
2017-May-21 14:57N 34°41' E 135°11'0 0.0
2017-May-21 13:57N 34°41' E 135°11'0 0.0
2017-May-21 13:27N 34°41' E 135°11'0 0.0
2017-May-21 12:57N 34°41' E 135°11'0 0.0
2017-May-21 12:27N 34°41' E 135°11'0 0.2
2017-May-21 12:00N 34°41' E 135°11'4 7.2
2017-May-21 11:30N 34°38' E 135°09'3 6.4
2017-May-21 11:00N 34°37' E 135°05'4 8.2
2017-May-21 10:30N 34°38' E 135°10'3 5.3
2017-May-21 10:00N 34°41' E 135°11'0 0.0
2017-May-21 09:26N 34°41' E 135°11'3 6.5
2017-May-21 09:00N 34°38' E 135°10'3 5.7
2017-May-21 08:30N 34°37' E 135°07'4 8.4
2017-May-21 08:00N 34°39' E 135°11'1 2.7
2017-May-21 07:31N 34°41' E 135°11'0 0.0
2017-May-21 06:55N 34°41' E 135°11'3 6.5
2017-May-21 06:30N 34°38' E 135°11'1 1.8
2017-May-21 06:00N 34°38' E 135°10'3 5.9
2017-May-21 05:30N 34°41' E 135°11'0 0.0
2017-May-21 04:57N 34°41' E 135°11'2 3.5
2017-May-21 04:30N 34°39' E 135°11'4 8.1
2017-May-21 04:00N 34°37' E 135°07'3 5.9
2017-May-21 03:30N 34°38' E 135°10'2 5.0
2017-May-21 03:00N 34°41' E 135°11'0 0.0
2017-May-21 02:28N 34°41' E 135°11'0 0.0
2017-May-21 01:52N 34°41' E 135°11'0 0.0
2017-May-21 01:28N 34°41' E 135°11'0 0.0
2017-May-21 00:58N 34°41' E 135°11'0 0.0
2017-May-21 00:28N 34°41' E 135°11'0 0.0
2017-May-20 23:58N 34°41' E 135°11'0 0.0
2017-May-20 23:28N 34°41' E 135°11'0 0.0
2017-May-20 22:58N 34°41' E 135°11'0 0.0
2017-May-20 22:28N 34°41' E 135°11'0 0.0
2017-May-20 21:58N 34°41' E 135°11'0 0.0
2017-May-20 21:28N 34°41' E 135°11'0 0.0
2017-May-20 20:58N 34°41' E 135°11'0 0.0
2017-May-20 20:28N 34°41' E 135°11'0 0.0
2017-May-20 19:58N 34°41' E 135°11'0 0.0
2017-May-20 19:28N 34°41' E 135°11'0 0.0
2017-May-20 18:52N 34°41' E 135°11'0 0.0
2017-May-20 18:28N 34°41' E 135°11'0 0.0
2017-May-20 17:58N 34°41' E 135°11'0 0.0
2017-May-20 17:22N 34°41' E 135°11'0 0.0
2017-May-20 16:58N 34°41' E 135°11'0 0.0
2017-May-20 16:22N 34°41' E 135°11'0 0.0
2017-May-20 15:58N 34°41' E 135°11'0 0.0
2017-May-20 15:28N 34°41' E 135°11'0 0.0
2017-May-20 14:58N 34°41' E 135°11'0 0.0
2017-May-20 13:58N 34°41' E 135°11'0 0.0
2017-May-20 13:28N 34°41' E 135°11'0 0.0
2017-May-20 12:58N 34°41' E 135°11'0 0.0
2017-May-20 12:28N 34°41' E 135°11'0 0.2
2017-May-20 12:00N 34°41' E 135°11'4 7.2
2017-May-20 11:30N 34°37' E 135°10'3 6.4
2017-May-20 11:00N 34°37' E 135°06'4 7.9
2017-May-20 10:30N 34°38' E 135°10'3 5.4
2017-May-20 10:00N 34°41' E 135°11'0 0.0
2017-May-20 09:27N 34°41' E 135°11'2 4.9
2017-May-20 09:00N 34°39' E 135°11'4 7.2
2017-May-20 08:30N 34°37' E 135°07'4 8.2
2017-May-20 08:00N 34°39' E 135°11'1 2.7
2017-May-20 07:30N 34°41' E 135°11'0 0.0
2017-May-20 07:00N 34°41' E 135°11'3 5.4
2017-May-20 06:31N 34°38' E 135°11'0 0.9
2017-May-20 06:01N 34°38' E 135°10'3 5.8
2017-May-20 05:30N 34°41' E 135°11'0 0.0
2017-May-20 04:57N 34°41' E 135°11'2 4.7
2017-May-20 04:30N 34°39' E 135°11'5 9.1
2017-May-20 04:00N 34°37' E 135°06'4 7.0
2017-May-20 03:30N 34°38' E 135°10'3 5.5
2017-May-20 03:00N 34°41' E 135°11'0 0.0
2017-May-20 02:30N 34°41' E 135°11'0 0.0
2017-May-20 02:00N 34°41' E 135°11'0 0.0
2017-May-20 01:30N 34°41' E 135°11'0 0.0
2017-May-20 01:00N 34°41' E 135°11'0 0.0
2017-May-20 00:30N 34°41' E 135°11'0 0.0
2017-May-20 00:00N 34°41' E 135°11'0 0.0
2017-May-19 23:29N 34°41' E 135°11'0 0.0
2017-May-19 23:00N 34°41' E 135°11'0 0.0
2017-May-19 22:30N 34°41' E 135°11'0 0.0
2017-May-19 22:00N 34°41' E 135°11'0 0.0
2017-May-19 21:30N 34°41' E 135°11'0 0.0
2017-May-19 21:00N 34°41' E 135°11'0 0.0
2017-May-19 20:30N 34°41' E 135°11'0 0.0
2017-May-19 20:00N 34°41' E 135°11'0 0.0
2017-May-19 19:30N 34°41' E 135°11'0 0.0
2017-May-19 19:00N 34°41' E 135°11'0 0.0
2017-May-19 18:30N 34°41' E 135°11'0 0.0
2017-May-19 18:00N 34°41' E 135°11'0 0.0
2017-May-19 17:30N 34°41' E 135°11'0 0.0
2017-May-19 17:00N 34°41' E 135°11'0 0.0
2017-May-19 16:31N 34°41' E 135°11'0 0.0
2017-May-19 16:00N 34°41' E 135°11'0 0.0
2017-May-19 15:30N 34°41' E 135°11'0 0.0
2017-May-19 15:01N 34°41' E 135°11'0 0.0
2017-May-19 14:01N 34°41' E 135°11'0 0.0
2017-May-19 13:30N 34°41' E 135°11'0 0.0
2017-May-19 13:00N 34°41' E 135°11'0 0.0
2017-May-19 12:30N 34°41' E 135°11'0 0.0
2017-May-19 12:01N 34°41' E 135°11'3 6.1
2017-May-19 11:30N 34°38' E 135°10'4 8.0
2017-May-19 11:00N 34°37' E 135°05'4 7.5
2017-May-19 10:30N 34°38' E 135°10'3 6.2
2017-May-19 10:01N 34°41' E 135°11'0 0.1
2017-May-19 09:22N 34°41' E 135°11'2 6.3
2017-May-19 09:00N 34°38' E 135°11'4 7.4
2017-May-19 08:30N 34°37' E 135°07'4 8.2
2017-May-19 08:01N 34°39' E 135°11'1 2.9
2017-May-19 07:30N 34°41' E 135°11'0 0.0
2017-May-19 07:00N 34°41' E 135°11'3 5.7
2017-May-19 06:30N 34°38' E 135°10'1 1.5
2017-May-19 06:00N 34°38' E 135°10'3 6.8
2017-May-19 05:30N 34°41' E 135°11'0 0.0
2017-May-19 04:59N 34°41' E 135°11'2 3.9
2017-May-19 04:30N 34°39' E 135°11'4 8.4
2017-May-19 03:59N 34°37' E 135°06'3 5.9
2017-May-19 03:30N 34°38' E 135°10'3 5.8
2017-May-19 03:00N 34°41' E 135°11'0 0.0
2017-May-19 02:21N 34°41' E 135°11'0 0.0
2017-May-19 01:51N 34°41' E 135°11'0 0.0
2017-May-19 01:27N 34°41' E 135°11'0 0.0
2017-May-19 00:57N 34°41' E 135°11'0 0.0
2017-May-19 00:21N 34°41' E 135°11'0 0.0
2017-May-18 23:57N 34°41' E 135°11'0 0.0
2017-May-18 23:21N 34°41' E 135°11'0 0.0
2017-May-18 22:57N 34°41' E 135°11'0 0.0
2017-May-18 22:21N 34°41' E 135°11'0 0.0
2017-May-18 21:57N 34°41' E 135°11'0 0.0
2017-May-18 21:03N 34°41' E 135°11'0 0.0
2017-May-18 20:57N 34°41' E 135°11'0 0.0
2017-May-18 20:27N 34°41' E 135°11'0 0.0
2017-May-18 19:51N 34°41' E 135°11'0 0.0
2017-May-18 19:21N 34°41' E 135°11'0 0.0
2017-May-18 18:51N 34°41' E 135°11'0 0.0
2017-May-18 18:21N 34°41' E 135°11'0 0.0
2017-May-18 17:57N 34°41' E 135°11'0 0.0
2017-May-18 17:27N 34°41' E 135°11'0 0.0
2017-May-18 16:51N 34°41' E 135°11'0 0.0
2017-May-18 16:27N 34°41' E 135°11'0 0.0
2017-May-18 15:57N 34°41' E 135°11'0 0.0
2017-May-18 15:27N 34°41' E 135°11'0 0.0
2017-May-18 14:57N 34°41' E 135°11'0 0.0
2017-May-18 13:57N 34°41' E 135°11'0 0.0
2017-May-18 13:27N 34°41' E 135°11'0 0.0
2017-May-18 12:51N 34°41' E 135°11'0 0.0
2017-May-18 12:21N 34°41' E 135°11'0 0.7
2017-May-18 12:00N 34°41' E 135°11'4 7.0
2017-May-18 11:30N 34°37' E 135°10'3 7.0
2017-May-18 11:01N 34°37' E 135°06'4 7.8
2017-May-18 10:30N 34°38' E 135°10'3 6.2
2017-May-18 10:00N 34°41' E 135°11'0 0.0
2017-May-18 09:28N 34°41' E 135°11'3 5.7
2017-May-18 09:00N 34°38' E 135°11'3 6.1
2017-May-18 08:30N 34°37' E 135°07'4 8.4
2017-May-18 08:00N 34°39' E 135°11'1 2.5
2017-May-18 07:28N 34°41' E 135°11'0 0.0
2017-May-18 06:55N 34°41' E 135°11'3 6.8
2017-May-18 06:30N 34°38' E 135°11'1 1.1
2017-May-18 06:00N 34°38' E 135°10'3 5.4
2017-May-18 05:30N 34°41' E 135°11'0 0.0
2017-May-18 04:59N 34°41' E 135°11'2 4.0
2017-May-18 04:30N 34°39' E 135°11'4 8.3
2017-May-18 04:00N 34°37' E 135°07'3 5.6
2017-May-18 03:30N 34°38' E 135°10'3 5.7
2017-May-18 03:00N 34°41' E 135°11'0 0.0
2017-May-18 02:25N 34°41' E 135°11'0 0.0
2017-May-18 01:55N 34°41' E 135°11'0 0.0
2017-May-18 01:25N 34°41' E 135°11'0 0.0
2017-May-18 00:55N 34°41' E 135°11'0 0.0
2017-May-18 00:19N 34°41' E 135°11'0 0.0
2017-May-17 23:55N 34°41' E 135°11'0 0.0
2017-May-17 23:25N 34°41' E 135°11'0 0.0
2017-May-17 22:55N 34°41' E 135°11'0 0.0
2017-May-17 22:19N 34°41' E 135°11'0 0.0
2017-May-17 21:55N 34°41' E 135°11'0 0.0
2017-May-17 21:25N 34°41' E 135°11'0 0.0
2017-May-17 20:55N 34°41' E 135°11'0 0.0
2017-May-17 20:25N 34°41' E 135°11'0 0.0
2017-May-17 19:49N 34°41' E 135°11'0 0.0
2017-May-17 19:25N 34°41' E 135°11'0 0.0
2017-May-17 18:55N 34°41' E 135°11'0 0.0
2017-May-17 18:25N 34°41' E 135°11'0 0.0
2017-May-17 17:49N 34°41' E 135°11'0 0.0
2017-May-17 17:25N 34°41' E 135°11'0 0.0
2017-May-17 16:55N 34°41' E 135°11'0 0.0
2017-May-17 16:13N 34°41' E 135°11'0 0.0
2017-May-17 15:49N 34°41' E 135°11'0 0.0
2017-May-17 15:25N 34°41' E 135°11'0 0.0
2017-May-17 14:55N 34°41' E 135°11'0 0.0
2017-May-17 13:49N 34°41' E 135°11'0 0.0
2017-May-17 13:19N 34°41' E 135°11'0 0.0
2017-May-17 12:49N 34°41' E 135°11'0 0.0
2017-May-17 12:25N 34°41' E 135°11'0 0.3
2017-May-17 12:00N 34°41' E 135°11'3 6.8
2017-May-17 11:30N 34°38' E 135°09'3 6.8
2017-May-17 11:00N 34°37' E 135°06'4 7.7
2017-May-17 10:30N 34°38' E 135°10'3 6.1
2017-May-17 10:00N 34°41' E 135°11'0 0.0
2017-May-17 09:26N 34°41' E 135°11'2 5.7
2017-May-17 09:00N 34°38' E 135°11'4 7.2
2017-May-17 08:30N 34°37' E 135°07'4 8.3
2017-May-17 08:00N 34°39' E 135°11'1 2.3
2017-May-17 07:26N 34°41' E 135°11'0 0.0
2017-May-17 06:56N 34°41' E 135°11'3 6.0
2017-May-17 06:30N 34°38' E 135°11'1 1.4
2017-May-17 06:00N 34°38' E 135°10'3 5.6
2017-May-17 05:31N 34°41' E 135°11'0 0.0
2017-May-17 04:50N 34°41' E 135°11'2 6.0
2017-May-17 04:30N 34°39' E 135°11'4 7.8
2017-May-17 04:00N 34°37' E 135°07'2 4.3
2017-May-17 03:30N 34°38' E 135°09'3 5.9
2017-May-17 03:00N 34°41' E 135°11'0 0.0
2017-May-17 02:26N 34°41' E 135°11'0 0.0
2017-May-17 01:56N 34°41' E 135°11'0 0.0
2017-May-17 01:26N 34°41' E 135°11'0 0.0
2017-May-17 00:50N 34°41' E 135°11'0 0.0
2017-May-17 00:20N 34°41' E 135°11'0 0.0
2017-May-16 23:56N 34°41' E 135°11'0 0.0
2017-May-16 23:26N 34°41' E 135°11'0 0.0
2017-May-16 22:56N 34°41' E 135°11'0 0.0
2017-May-16 22:26N 34°41' E 135°11'0 0.0
2017-May-16 21:56N 34°41' E 135°11'0 0.0
2017-May-16 21:26N 34°41' E 135°11'0 0.0
2017-May-16 20:56N 34°41' E 135°11'0 0.0
2017-May-16 20:26N 34°41' E 135°11'0 0.0
2017-May-16 19:56N 34°41' E 135°11'0 0.0
2017-May-16 19:20N 34°41' E 135°11'0 0.0
2017-May-16 18:56N 34°41' E 135°11'0 0.0
2017-May-16 18:26N 34°41' E 135°11'0 0.0
2017-May-16 17:56N 34°41' E 135°11'0 0.0
2017-May-16 17:26N 34°41' E 135°11'0 0.0
2017-May-16 16:56N 34°41' E 135°11'0 0.0
2017-May-16 16:26N 34°41' E 135°11'0 0.0
2017-May-16 15:38N 34°41' E 135°11'0 0.0
2017-May-16 15:26N 34°41' E 135°11'0 0.0
2017-May-16 14:56N 34°41' E 135°11'0 0.0
2017-May-16 14:26N 34°41' E 135°11'0 0.0
2017-May-16 13:26N 34°41' E 135°11'0 0.0
2017-May-16 12:44N 34°41' E 135°11'0 0.0
2017-May-16 12:26N 34°41' E 135°11'0 0.3
2017-May-16 12:00N 34°41' E 135°11'3 6.9
2017-May-16 11:31N 34°38' E 135°09'3 6.9
2017-May-16 11:00N 34°37' E 135°05'4 7.6
2017-May-16 10:30N 34°38' E 135°10'3 6.2
2017-May-16 10:01N 34°41' E 135°11'0 0.0
2017-May-16 09:28N 34°41' E 135°11'3 5.9
2017-May-16 09:00N 34°38' E 135°10'2 3.8
2017-May-16 08:30N 34°37' E 135°08'3 6.9
2017-May-16 08:00N 34°40' E 135°11'1 2.2
2017-May-16 07:27N 34°41' E 135°11'0 0.0
2017-May-16 06:56N 34°41' E 135°11'3 5.9
2017-May-16 06:30N 34°38' E 135°11'1 1.0
2017-May-16 06:00N 34°38' E 135°10'3 5.5
2017-May-16 05:30N 34°41' E 135°11'0 0.0
2017-May-16 04:59N 34°41' E 135°11'2 4.2
2017-May-16 04:30N 34°39' E 135°11'4 7.8
2017-May-16 04:00N 34°37' E 135°07'3 5.1
2017-May-16 03:30N 34°38' E 135°10'3 6.2
2017-May-16 03:00N 34°41' E 135°11'0 0.0
2017-May-16 02:20N 34°41' E 135°11'0 0.0
2017-May-16 01:56N 34°41' E 135°11'0 0.0
2017-May-16 01:26N 34°41' E 135°11'0 0.0
2017-May-16 00:56N 34°41' E 135°11'0 0.0
2017-May-16 00:26N 34°41' E 135°11'0 0.0
2017-May-15 23:56N 34°41' E 135°11'0 0.0
2017-May-15 23:26N 34°41' E 135°11'0 0.0
2017-May-15 22:56N 34°41' E 135°11'0 0.0
2017-May-15 22:26N 34°41' E 135°11'0 0.0
2017-May-15 21:50N 34°41' E 135°11'0 0.0
2017-May-15 21:26N 34°41' E 135°11'0 0.0
2017-May-15 20:56N 34°41' E 135°11'0 0.0
2017-May-15 20:26N 34°41' E 135°11'0 0.0
2017-May-15 19:56N 34°41' E 135°11'0 0.0
2017-May-15 19:26N 34°41' E 135°11'0 0.0
2017-May-15 18:56N 34°41' E 135°11'0 0.0
2017-May-15 18:26N 34°41' E 135°11'0 0.0
2017-May-15 17:56N 34°41' E 135°11'0 0.0
2017-May-15 17:26N 34°41' E 135°11'0 0.0
2017-May-15 16:50N 34°41' E 135°11'0 0.0
2017-May-15 16:26N 34°41' E 135°11'0 0.0
2017-May-15 15:56N 34°41' E 135°11'0 0.0
2017-May-15 15:26N 34°41' E 135°11'0 0.0
2017-May-15 14:56N 34°41' E 135°11'0 0.0
2017-May-15 14:26N 34°41' E 135°11'0 0.0
2017-May-15 13:26N 34°41' E 135°11'0 0.0
2017-May-15 12:56N 34°41' E 135°11'0 0.0
2017-May-15 12:20N 34°41' E 135°11'0 0.5
2017-May-15 12:00N 34°41' E 135°11'4 7.0
2017-May-15 11:30N 34°37' E 135°09'3 6.6
2017-May-15 11:00N 34°37' E 135°05'4 8.1
2017-May-15 10:30N 34°38' E 135°10'3 5.7
2017-May-15 10:00N 34°41' E 135°11'0 0.0
2017-May-15 09:30N 34°41' E 135°11'2 4.8
2017-May-15 09:00N 34°38' E 135°11'3 6.0
2017-May-15 08:30N 34°37' E 135°07'4 7.7
2017-May-15 08:00N 34°40' E 135°11'1 2.4
2017-May-15 07:30N 34°41' E 135°11'0 0.0
2017-May-15 07:00N 34°41' E 135°11'3 5.8
2017-May-15 06:30N 34°38' E 135°10'0 0.6
2017-May-15 06:00N 34°38' E 135°10'3 5.5
2017-May-15 05:30N 34°41' E 135°11'0 0.0
2017-May-15 04:59N 34°41' E 135°11'2 3.6
2017-May-15 04:30N 34°39' E 135°11'4 7.8
2017-May-15 04:00N 34°37' E 135°07'3 5.1
2017-May-15 03:30N 34°38' E 135°10'3 5.8
2017-May-15 03:00N 34°41' E 135°11'0 0.0
2017-May-15 02:27N 34°41' E 135°11'0 0.0
2017-May-15 01:57N 34°41' E 135°11'0 0.0
2017-May-15 01:27N 34°41' E 135°11'0 0.0
2017-May-15 00:51N 34°41' E 135°11'0 0.0
2017-May-15 00:27N 34°41' E 135°11'0 0.0
2017-May-14 23:45N 34°41' E 135°11'0 0.0
2017-May-14 23:27N 34°41' E 135°11'0 0.0
2017-May-14 22:51N 34°41' E 135°11'0 0.0
2017-May-14 22:27N 34°41' E 135°11'0 0.0
2017-May-14 21:57N 34°41' E 135°11'0 0.0
2017-May-14 21:15N 34°41' E 135°11'0 0.0
2017-May-14 20:57N 34°41' E 135°11'0 0.0
2017-May-14 20:27N 34°41' E 135°11'0 0.0
2017-May-14 19:57N 34°41' E 135°11'0 0.0
2017-May-14 19:27N 34°41' E 135°11'0 0.0
2017-May-14 18:57N 34°41' E 135°11'0 0.0
2017-May-14 18:21N 34°41' E 135°11'0 0.0
2017-May-14 17:57N 34°41' E 135°11'  
Track history (hours):
 
Tides and Currents Weather Stations Pressure Air Temp Water Temp Dewpoint Dewpoint Depression Visibility Wind Speed Wind Dir Waves Ship Positions

Concerto

Last reported at 2017-May-24 17:28 UTC. Time now 2017-May-24 17:44 UTC.
Position N 34°41' E 135°11'.

Length 74 m; draft 3 m.

Type: Passenger vessel. MMSI: 431000448.

Date/timePositionNaut miles runAvg speedWind from/ knotsBaromVisibWave heightAir tempDewpointWater temp
2017-May-24 17:28N 34°41' E 135°11'0 0.0
2017-May-24 16:58N 34°41' E 135°11'0 0.0
2017-May-24 16:28N 34°41' E 135°11'0 0.0
2017-May-24 15:58N 34°41' E 135°11'0 0.0
2017-May-24 15:28N 34°41' E 135°11'0 0.0
2017-May-24 14:58N 34°41' E 135°11'0 0.0
2017-May-24 14:28N 34°41' E 135°11'0 0.0
2017-May-24 13:28N 34°41' E 135°11'0 0.0
2017-May-24 12:58N 34°41' E 135°11'0 0.0
2017-May-24 12:28N 34°41' E 135°11'0 0.2
2017-May-24 12:00N 34°41' E 135°11'4 7.1
2017-May-24 11:30N 34°37' E 135°10'4 7.8
2017-May-24 11:00N 34°37' E 135°05'4 7.6
2017-May-24 10:30N 34°38' E 135°09'3 6.5
2017-May-24 10:00N 34°41' E 135°11'0 0.0
2017-May-24 09:26N 34°41' E 135°11'2 4.9
2017-May-24 09:00N 34°39' E 135°11'4 7.7
2017-May-24 08:30N 34°37' E 135°07'4 8.4
2017-May-24 08:00N 34°39' E 135°11'1 2.9
2017-May-24 07:30N 34°41' E 135°11'0 0.0
2017-May-24 07:00N 34°41' E 135°11'3 5.3
2017-May-24 06:30N 34°38' E 135°11'1 1.3
2017-May-24 06:00N 34°38' E 135°10'3 5.7
2017-May-24 05:30N 34°41' E 135°11'0 0.0
2017-May-24 04:57N 34°41' E 135°11'2 4.3
2017-May-24 04:30N 34°39' E 135°11'4 8.3
2017-May-24 04:00N 34°37' E 135°07'3 5.0
2017-May-24 03:30N 34°38' E 135°10'3 6.1
2017-May-24 03:00N 34°41' E 135°11'0 0.0
2017-May-24 02:30N 34°41' E 135°11'0 0.0
2017-May-24 02:00N 34°41' E 135°11'0 0.0
2017-May-24 01:30N 34°41' E 135°11'0 0.0
2017-May-24 01:00N 34°41' E 135°11'0 0.0
2017-May-24 00:30N 34°41' E 135°11'0 0.0
2017-May-24 00:00N 34°41' E 135°11'0 0.0
2017-May-23 23:24N 34°41' E 135°11'0 0.0
2017-May-23 22:54N 34°41' E 135°11'0 0.0
2017-May-23 22:30N 34°41' E 135°11'0 0.0
2017-May-23 22:00N 34°41' E 135°11'0 0.0
2017-May-23 21:30N 34°41' E 135°11'0 0.0
2017-May-23 21:00N 34°41' E 135°11'0 0.0
2017-May-23 20:30N 34°41' E 135°11'0 0.0
2017-May-23 20:00N 34°41' E 135°11'0 0.0
2017-May-23 19:30N 34°41' E 135°11'0 0.0
2017-May-23 19:00N 34°41' E 135°11'0 0.0
2017-May-23 18:30N 34°41' E 135°11'0 0.0
2017-May-23 18:00N 34°41' E 135°11'0 0.0
2017-May-23 17:24N 34°41' E 135°11'0 0.0
2017-May-23 17:00N 34°41' E 135°11'0 0.0
2017-May-23 16:18N 34°41' E 135°11'0 0.0
2017-May-23 16:00N 34°41' E 135°11'0 0.0
2017-May-23 15:30N 34°41' E 135°11'0 0.0
2017-May-23 15:00N 34°41' E 135°11'0 0.0
2017-May-23 14:30N 34°41' E 135°11'0 0.0
2017-May-23 13:24N 34°41' E 135°11'0 0.0
2017-May-23 12:54N 34°41' E 135°11'0 0.0
2017-May-23 12:18N 34°41' E 135°11'0 0.9
2017-May-23 12:00N 34°41' E 135°11'4 7.9
2017-May-23 11:30N 34°37' E 135°08'3 5.3
2017-May-23 11:00N 34°37' E 135°05'4 8.7
2017-May-23 10:30N 34°38' E 135°10'3 5.2
2017-May-23 10:00N 34°41' E 135°11'0 0.0
2017-May-23 09:25N 34°41' E 135°11'3 6.5
2017-May-23 09:00N 34°38' E 135°10'2 4.5
2017-May-23 08:30N 34°37' E 135°08'4 8.0
2017-May-23 08:00N 34°40' E 135°11'1 1.8
2017-May-23 07:26N 34°41' E 135°11'0 0.0
2017-May-23 06:57N 34°41' E 135°11'3 6.2
2017-May-23 06:30N 34°38' E 135°11'1 1.2
2017-May-23 06:00N 34°38' E 135°10'3 5.8
2017-May-23 05:30N 34°41' E 135°11'0 0.0
2017-May-23 04:52N 34°41' E 135°11'2 5.7
2017-May-23 04:30N 34°39' E 135°11'4 8.2
2017-May-23 04:00N 34°37' E 135°07'3 6.4
2017-May-23 03:30N 34°38' E 135°10'3 5.1
2017-May-23 03:00N 34°41' E 135°11'0 0.0
2017-May-23 02:28N 34°41' E 135°11'0 0.0
2017-May-23 01:58N 34°41' E 135°11'0 0.0
2017-May-23 01:28N 34°41' E 135°11'0 0.0
2017-May-23 00:58N 34°41' E 135°11'0 0.0
2017-May-23 00:28N 34°41' E 135°11'0 0.0
2017-May-22 23:58N 34°41' E 135°11'0 0.0
2017-May-22 23:28N 34°41' E 135°11'0 0.0
2017-May-22 22:58N 34°41' E 135°11'0 0.0
2017-May-22 22:28N 34°41' E 135°11'0 0.0
2017-May-22 21:58N 34°41' E 135°11'0 0.0
2017-May-22 21:28N 34°41' E 135°11'0 0.0
2017-May-22 20:58N 34°41' E 135°11'0 0.0
2017-May-22 20:28N 34°41' E 135°11'0 0.0
2017-May-22 19:58N 34°41' E 135°11'0 0.0
2017-May-22 19:28N 34°41' E 135°11'0 0.0
2017-May-22 18:58N 34°41' E 135°11'0 0.0
2017-May-22 18:22N 34°41' E 135°11'0 0.0
2017-May-22 17:58N 34°41' E 135°11'0 0.0
2017-May-22 17:28N 34°41' E 135°11'0 0.0
2017-May-22 16:58N 34°41' E 135°11'0 0.0
2017-May-22 16:28N 34°41' E 135°11'0 0.0
2017-May-22 15:58N 34°41' E 135°11'0 0.0
2017-May-22 15:28N 34°41' E 135°11'0 0.0
2017-May-22 14:58N 34°41' E 135°11'0 0.0
2017-May-22 13:58N 34°41' E 135°11'0 0.0
2017-May-22 13:22N 34°41' E 135°11'0 0.0
2017-May-22 12:58N 34°41' E 135°11'0 0.0
2017-May-22 12:28N 34°41' E 135°11'0 0.3
2017-May-22 12:00N 34°41' E 135°11'4 7.5
2017-May-22 11:30N 34°37' E 135°09'3 6.3
2017-May-22 11:00N 34°37' E 135°06'4 7.7
2017-May-22 10:30N 34°38' E 135°10'3 5.8
2017-May-22 10:00N 34°41' E 135°11'0 0.0
2017-May-22 09:29N 34°41' E 135°11'2 4.9
2017-May-22 09:00N 34°39' E 135°11'3 6.1
2017-May-22 08:30N 34°37' E 135°07'4 8.4
2017-May-22 08:00N 34°40' E 135°11'1 2.0
2017-May-22 07:22N 34°41' E 135°11'0 0.0
2017-May-22 06:58N 34°41' E 135°11'3 5.8
2017-May-22 06:30N 34°38' E 135°11'0 1.0
2017-May-22 06:00N 34°38' E 135°10'3 5.5
2017-May-22 05:30N 34°41' E 135°11'0 0.0
2017-May-22 04:54N 34°41' E 135°11'2 4.7
2017-May-22 04:31N 34°39' E 135°11'4 8.0
2017-May-22 04:00N 34°37' E 135°07'3 5.9
2017-May-22 03:30N 34°38' E 135°10'3 5.2
2017-May-22 03:00N 34°41' E 135°11'0 0.0
2017-May-22 02:27N 34°41' E 135°11'0 0.0
2017-May-22 01:57N 34°41' E 135°11'0 0.0
2017-May-22 01:15N 34°41' E 135°11'0 0.0
2017-May-22 00:57N 34°41' E 135°11'0 0.0
2017-May-22 00:27N 34°41' E 135°11'0 0.0
2017-May-21 23:57N 34°41' E 135°11'0 0.0
2017-May-21 23:21N 34°41' E 135°11'0 0.0
2017-May-21 22:57N 34°41' E 135°11'0 0.0
2017-May-21 22:09N 34°41' E 135°11'0 0.0
2017-May-21 21:57N 34°41' E 135°11'0 0.0
2017-May-21 21:27N 34°41' E 135°11'0 0.0
2017-May-21 20:51N 34°41' E 135°11'0 0.0
2017-May-21 20:27N 34°41' E 135°11'0 0.0
2017-May-21 19:57N 34°41' E 135°11'0 0.0
2017-May-21 19:09N 34°41' E 135°11'0 0.0
2017-May-21 18:57N 34°41' E 135°11'0 0.0
2017-May-21 18:27N 34°41' E 135°11'0 0.0
2017-May-21 17:57N 34°41' E 135°11'0 0.0
2017-May-21 17:27N 34°41' E 135°11'0 0.0
2017-May-21 16:45N 34°41' E 135°11'0 0.0
2017-May-21 16:27N 34°41' E 135°11'0 0.0
2017-May-21 15:51N 34°41' E 135°11'0 0.0
2017-May-21 15:27N 34°41' E 135°11'0 0.0
2017-May-21 14:57N 34°41' E 135°11'0 0.0
2017-May-21 13:57N 34°41' E 135°11'0 0.0
2017-May-21 13:27N 34°41' E 135°11'0 0.0
2017-May-21 12:57N 34°41' E 135°11'0 0.0
2017-May-21 12:27N 34°41' E 135°11'0 0.2
2017-May-21 12:00N 34°41' E 135°11'4 7.2
2017-May-21 11:30N 34°38' E 135°09'3 6.4
2017-May-21 11:00N 34°37' E 135°05'4 8.2
2017-May-21 10:30N 34°38' E 135°10'3 5.3
2017-May-21 10:00N 34°41' E 135°11'0 0.0
2017-May-21 09:26N 34°41' E 135°11'3 6.5
2017-May-21 09:00N 34°38' E 135°10'3 5.7
2017-May-21 08:30N 34°37' E 135°07'4 8.4
2017-May-21 08:00N 34°39' E 135°11'1 2.7
2017-May-21 07:31N 34°41' E 135°11'0 0.0
2017-May-21 06:55N 34°41' E 135°11'3 6.5
2017-May-21 06:30N 34°38' E 135°11'1 1.8
2017-May-21 06:00N 34°38' E 135°10'3 5.9
2017-May-21 05:30N 34°41' E 135°11'0 0.0
2017-May-21 04:57N 34°41' E 135°11'2 3.5
2017-May-21 04:30N 34°39' E 135°11'4 8.1
2017-May-21 04:00N 34°37' E 135°07'3 5.9
2017-May-21 03:30N 34°38' E 135°10'2 5.0
2017-May-21 03:00N 34°41' E 135°11'0 0.0
2017-May-21 02:28N 34°41' E 135°11'0 0.0
2017-May-21 01:52N 34°41' E 135°11'0 0.0
2017-May-21 01:28N 34°41' E 135°11'0 0.0
2017-May-21 00:58N 34°41' E 135°11'0 0.0
2017-May-21 00:28N 34°41' E 135°11'0 0.0
2017-May-20 23:58N 34°41' E 135°11'0 0.0
2017-May-20 23:28N 34°41' E 135°11'0 0.0
2017-May-20 22:58N 34°41' E 135°11'0 0.0
2017-May-20 22:28N 34°41' E 135°11'0 0.0
2017-May-20 21:58N 34°41' E 135°11'0 0.0
2017-May-20 21:28N 34°41' E 135°11'0 0.0
2017-May-20 20:58N 34°41' E 135°11'0 0.0
2017-May-20 20:28N 34°41' E 135°11'0 0.0
2017-May-20 19:58N 34°41' E 135°11'0 0.0
2017-May-20 19:28N 34°41' E 135°11'0 0.0
2017-May-20 18:52N 34°41' E 135°11'0 0.0
2017-May-20 18:28N 34°41' E 135°11'0 0.0
2017-May-20 17:58N 34°41' E 135°11'0 0.0
2017-May-20 17:22N 34°41' E 135°11'0 0.0
2017-May-20 16:58N 34°41' E 135°11'0 0.0
2017-May-20 16:22N 34°41' E 135°11'0 0.0
2017-May-20 15:58N 34°41' E 135°11'0 0.0
2017-May-20 15:28N 34°41' E 135°11'0 0.0
2017-May-20 14:58N 34°41' E 135°11'0 0.0
2017-May-20 13:58N 34°41' E 135°11'0 0.0
2017-May-20 13:28N 34°41' E 135°11'0 0.0
2017-May-20 12:58N 34°41' E 135°11'0 0.0
2017-May-20 12:28N 34°41' E 135°11'0 0.2
2017-May-20 12:00N 34°41' E 135°11'4 7.2
2017-May-20 11:30N 34°37' E 135°10'3 6.4
2017-May-20 11:00N 34°37' E 135°06'4 7.9
2017-May-20 10:30N 34°38' E 135°10'3 5.4
2017-May-20 10:00N 34°41' E 135°11'0 0.0
2017-May-20 09:27N 34°41' E 135°11'2 4.9
2017-May-20 09:00N 34°39' E 135°11'4 7.2
2017-May-20 08:30N 34°37' E 135°07'4 8.2
2017-May-20 08:00N 34°39' E 135°11'1 2.7
2017-May-20 07:30N 34°41' E 135°11'0 0.0
2017-May-20 07:00N 34°41' E 135°11'3 5.4
2017-May-20 06:31N 34°38' E 135°11'0 0.9
2017-May-20 06:01N 34°38' E 135°10'3 5.8
2017-May-20 05:30N 34°41' E 135°11'0 0.0
2017-May-20 04:57N 34°41' E 135°11'2 4.7
2017-May-20 04:30N 34°39' E 135°11'5 9.1
2017-May-20 04:00N 34°37' E 135°06'4 7.0
2017-May-20 03:30N 34°38' E 135°10'3 5.5
2017-May-20 03:00N 34°41' E 135°11'0 0.0
2017-May-20 02:30N 34°41' E 135°11'0 0.0
2017-May-20 02:00N 34°41' E 135°11'0 0.0
2017-May-20 01:30N 34°41' E 135°11'0 0.0
2017-May-20 01:00N 34°41' E 135°11'0 0.0
2017-May-20 00:30N 34°41' E 135°11'0 0.0
2017-May-20 00:00N 34°41' E 135°11'0 0.0
2017-May-19 23:29N 34°41' E 135°11'0 0.0
2017-May-19 23:00N 34°41' E 135°11'0 0.0
2017-May-19 22:30N 34°41' E 135°11'0 0.0
2017-May-19 22:00N 34°41' E 135°11'0 0.0
2017-May-19 21:30N 34°41' E 135°11'0 0.0
2017-May-19 21:00N 34°41' E 135°11'0 0.0
2017-May-19 20:30N 34°41' E 135°11'0 0.0
2017-May-19 20:00N 34°41' E 135°11'0 0.0
2017-May-19 19:30N 34°41' E 135°11'0 0.0
2017-May-19 19:00N 34°41' E 135°11'0 0.0
2017-May-19 18:30N 34°41' E 135°11'0 0.0
2017-May-19 18:00N 34°41' E 135°11'0 0.0
2017-May-19 17:30N 34°41' E 135°11'0 0.0
2017-May-19 17:00N 34°41' E 135°11'0 0.0
2017-May-19 16:31N 34°41' E 135°11'0 0.0
2017-May-19 16:00N 34°41' E 135°11'0 0.0
2017-May-19 15:30N 34°41' E 135°11'0 0.0
2017-May-19 15:01N 34°41' E 135°11'0 0.0
2017-May-19 14:01N 34°41' E 135°11'0 0.0
2017-May-19 13:30N 34°41' E 135°11'0 0.0
2017-May-19 13:00N 34°41' E 135°11'0 0.0
2017-May-19 12:30N 34°41' E 135°11'0 0.0
2017-May-19 12:01N 34°41' E 135°11'3 6.1
2017-May-19 11:30N 34°38' E 135°10'4 8.0
2017-May-19 11:00N 34°37' E 135°05'4 7.5
2017-May-19 10:30N 34°38' E 135°10'3 6.2
2017-May-19 10:01N 34°41' E 135°11'0 0.1
2017-May-19 09:22N 34°41' E 135°11'2 6.3
2017-May-19 09:00N 34°38' E 135°11'4 7.4
2017-May-19 08:30N 34°37' E 135°07'4 8.2
2017-May-19 08:01N 34°39' E 135°11'1 2.9
2017-May-19 07:30N 34°41' E 135°11'0 0.0
2017-May-19 07:00N 34°41' E 135°11'3 5.7
2017-May-19 06:30N 34°38' E 135°10'1 1.5
2017-May-19 06:00N 34°38' E 135°10'3 6.8
2017-May-19 05:30N 34°41' E 135°11'0 0.0
2017-May-19 04:59N 34°41' E 135°11'2 3.9
2017-May-19 04:30N 34°39' E 135°11'4 8.4
2017-May-19 03:59N 34°37' E 135°06'3 5.9
2017-May-19 03:30N 34°38' E 135°10'3 5.8
2017-May-19 03:00N 34°41' E 135°11'0 0.0
2017-May-19 02:21N 34°41' E 135°11'0 0.0
2017-May-19 01:51N 34°41' E 135°11'0 0.0
2017-May-19 01:27N 34°41' E 135°11'0 0.0
2017-May-19 00:57N 34°41' E 135°11'0 0.0
2017-May-19 00:21N 34°41' E 135°11'0 0.0
2017-May-18 23:57N 34°41' E 135°11'0 0.0
2017-May-18 23:21N 34°41' E 135°11'0 0.0
2017-May-18 22:57N 34°41' E 135°11'0 0.0
2017-May-18 22:21N 34°41' E 135°11'0 0.0
2017-May-18 21:57N 34°41' E 135°11'0 0.0
2017-May-18 21:03N 34°41' E 135°11'0 0.0
2017-May-18 20:57N 34°41' E 135°11'0 0.0
2017-May-18 20:27N 34°41' E 135°11'0 0.0
2017-May-18 19:51N 34°41' E 135°11'0 0.0
2017-May-18 19:21N 34°41' E 135°11'0 0.0
2017-May-18 18:51N 34°41' E 135°11'0 0.0
2017-May-18 18:21N 34°41' E 135°11'0 0.0
2017-May-18 17:57N 34°41' E 135°11'0 0.0
2017-May-18 17:27N 34°41' E 135°11'0 0.0
2017-May-18 16:51N 34°41' E 135°11'0 0.0
2017-May-18 16:27N 34°41' E 135°11'0 0.0
2017-May-18 15:57N 34°41' E 135°11'0 0.0
2017-May-18 15:27N 34°41' E 135°11'0 0.0
2017-May-18 14:57N 34°41' E 135°11'0 0.0
2017-May-18 13:57N 34°41' E 135°11'0 0.0
2017-May-18 13:27N 34°41' E 135°11'0 0.0
2017-May-18 12:51N 34°41' E 135°11'0 0.0
2017-May-18 12:21N 34°41' E 135°11'0 0.7
2017-May-18 12:00N 34°41' E 135°11'4 7.0
2017-May-18 11:30N 34°37' E 135°10'3 7.0
2017-May-18 11:01N 34°37' E 135°06'4 7.8
2017-May-18 10:30N 34°38' E 135°10'3 6.2
2017-May-18 10:00N 34°41' E 135°11'0 0.0
2017-May-18 09:28N 34°41' E 135°11'3 5.7
2017-May-18 09:00N 34°38' E 135°11'3 6.1
2017-May-18 08:30N 34°37' E 135°07'4 8.4
2017-May-18 08:00N 34°39' E 135°11'1 2.5
2017-May-18 07:28N 34°41' E 135°11'0 0.0
2017-May-18 06:55N 34°41' E 135°11'3 6.8
2017-May-18 06:30N 34°38' E 135°11'1 1.1
2017-May-18 06:00N 34°38' E 135°10'3 5.4
2017-May-18 05:30N 34°41' E 135°11'0 0.0
2017-May-18 04:59N 34°41' E 135°11'2 4.0
2017-May-18 04:30N 34°39' E 135°11'4 8.3
2017-May-18 04:00N 34°37' E 135°07'3 5.6
2017-May-18 03:30N 34°38' E 135°10'3 5.7
2017-May-18 03:00N 34°41' E 135°11'0 0.0
2017-May-18 02:25N 34°41' E 135°11'0 0.0
2017-May-18 01:55N 34°41' E 135°11'0 0.0
2017-May-18 01:25N 34°41' E 135°11'0 0.0
2017-May-18 00:55N 34°41' E 135°11'0 0.0
2017-May-18 00:19N 34°41' E 135°11'0 0.0
2017-May-17 23:55N 34°41' E 135°11'0 0.0
2017-May-17 23:25N 34°41' E 135°11'0 0.0
2017-May-17 22:55N 34°41' E 135°11'0 0.0
2017-May-17 22:19N 34°41' E 135°11'0 0.0
2017-May-17 21:55N 34°41' E 135°11'0 0.0
2017-May-17 21:25N 34°41' E 135°11'0 0.0
2017-May-17 20:55N 34°41' E 135°11'0 0.0
2017-May-17 20:25N 34°41' E 135°11'0 0.0
2017-May-17 19:49N 34°41' E 135°11'0 0.0
2017-May-17 19:25N 34°41' E 135°11'0 0.0
2017-May-17 18:55N 34°41' E 135°11'0 0.0
2017-May-17 18:25N 34°41' E 135°11'0 0.0
2017-May-17 17:49N 34°41' E 135°11'0 0.0
2017-May-17 17:25N 34°41' E 135°11'0 0.0
2017-May-17 16:55N 34°41' E 135°11'0 0.0
2017-May-17 16:13N 34°41' E 135°11'0 0.0
2017-May-17 15:49N 34°41' E 135°11'0 0.0
2017-May-17 15:25N 34°41' E 135°11'0 0.0
2017-May-17 14:55N 34°41' E 135°11'0 0.0
2017-May-17 13:49N 34°41' E 135°11'0 0.0
2017-May-17 13:19N 34°41' E 135°11'0 0.0
2017-May-17 12:49N 34°41' E 135°11'0 0.0
2017-May-17 12:25N 34°41' E 135°11'0 0.3
2017-May-17 12:00N 34°41' E 135°11'3 6.8
2017-May-17 11:30N 34°38' E 135°09'3 6.8
2017-May-17 11:00N 34°37' E 135°06'4 7.7
2017-May-17 10:30N 34°38' E 135°10'3 6.1
2017-May-17 10:00N 34°41' E 135°11'0 0.0
2017-May-17 09:26N 34°41' E 135°11'2 5.7
2017-May-17 09:00N 34°38' E 135°11'4 7.2
2017-May-17 08:30N 34°37' E 135°07'4 8.3
2017-May-17 08:00N 34°39' E 135°11'1 2.3
2017-May-17 07:26N 34°41' E 135°11'0 0.0
2017-May-17 06:56N 34°41' E 135°11'3 6.0
2017-May-17 06:30N 34°38' E 135°11'1 1.4
2017-May-17 06:00N 34°38' E 135°10'3 5.6
2017-May-17 05:31N 34°41' E 135°11'0 0.0
2017-May-17 04:50N 34°41' E 135°11'2 6.0
2017-May-17 04:30N 34°39' E 135°11'4 7.8
2017-May-17 04:00N 34°37' E 135°07'2 4.3
2017-May-17 03:30N 34°38' E 135°09'3 5.9
2017-May-17 03:00N 34°41' E 135°11'0 0.0
2017-May-17 02:26N 34°41' E 135°11'0 0.0
2017-May-17 01:56N 34°41' E 135°11'0 0.0
2017-May-17 01:26N 34°41' E 135°11'0 0.0
2017-May-17 00:50N 34°41' E 135°11'0 0.0
2017-May-17 00:20N 34°41' E 135°11'0 0.0
2017-May-16 23:56N 34°41' E 135°11'0 0.0
2017-May-16 23:26N 34°41' E 135°11'0 0.0
2017-May-16 22:56N 34°41' E 135°11'0 0.0
2017-May-16 22:26N 34°41' E 135°11'0 0.0
2017-May-16 21:56N 34°41' E 135°11'0 0.0
2017-May-16 21:26N 34°41' E 135°11'0 0.0
2017-May-16 20:56N 34°41' E 135°11'0 0.0
2017-May-16 20:26N 34°41' E 135°11'0 0.0
2017-May-16 19:56N 34°41' E 135°11'0 0.0
2017-May-16 19:20N 34°41' E 135°11'0 0.0
2017-May-16 18:56N 34°41' E 135°11'0 0.0
2017-May-16 18:26N 34°41' E 135°11'0 0.0
2017-May-16 17:56N 34°41' E 135°11'0 0.0
2017-May-16 17:26N 34°41' E 135°11'0 0.0
2017-May-16 16:56N 34°41' E 135°11'0 0.0
2017-May-16 16:26N 34°41' E 135°11'0 0.0
2017-May-16 15:38N 34°41' E 135°11'0 0.0
2017-May-16 15:26N 34°41' E 135°11'0 0.0
2017-May-16 14:56N 34°41' E 135°11'0 0.0
2017-May-16 14:26N 34°41' E 135°11'0 0.0
2017-May-16 13:26N 34°41' E 135°11'0 0.0
2017-May-16 12:44N 34°41' E 135°11'0 0.0
2017-May-16 12:26N 34°41' E 135°11'0 0.3
2017-May-16 12:00N 34°41' E 135°11'3 6.9
2017-May-16 11:31N 34°38' E 135°09'3 6.9
2017-May-16 11:00N 34°37' E 135°05'4 7.6
2017-May-16 10:30N 34°38' E 135°10'3 6.2
2017-May-16 10:01N 34°41' E 135°11'0 0.0
2017-May-16 09:28N 34°41' E 135°11'3 5.9
2017-May-16 09:00N 34°38' E 135°10'2 3.8
2017-May-16 08:30N 34°37' E 135°08'3 6.9
2017-May-16 08:00N 34°40' E 135°11'1 2.2
2017-May-16 07:27N 34°41' E 135°11'0 0.0
2017-May-16 06:56N 34°41' E 135°11'3 5.9
2017-May-16 06:30N 34°38' E 135°11'1 1.0
2017-May-16 06:00N 34°38' E 135°10'3 5.5
2017-May-16 05:30N 34°41' E 135°11'0 0.0
2017-May-16 04:59N 34°41' E 135°11'2 4.2
2017-May-16 04:30N 34°39' E 135°11'4 7.8
2017-May-16 04:00N 34°37' E 135°07'3 5.1
2017-May-16 03:30N 34°38' E 135°10'3 6.2
2017-May-16 03:00N 34°41' E 135°11'0 0.0
2017-May-16 02:20N 34°41' E 135°11'0 0.0
2017-May-16 01:56N 34°41' E 135°11'0 0.0
2017-May-16 01:26N 34°41' E 135°11'0 0.0
2017-May-16 00:56N 34°41' E 135°11'0 0.0
2017-May-16 00:26N 34°41' E 135°11'0 0.0
2017-May-15 23:56N 34°41' E 135°11'0 0.0
2017-May-15 23:26N 34°41' E 135°11'0 0.0
2017-May-15 22:56N 34°41' E 135°11'0 0.0
2017-May-15 22:26N 34°41' E 135°11'0 0.0
2017-May-15 21:50N 34°41' E 135°11'0 0.0
2017-May-15 21:26N 34°41' E 135°11'0 0.0
2017-May-15 20:56N 34°41' E 135°11'0 0.0
2017-May-15 20:26N 34°41' E 135°11'0 0.0
2017-May-15 19:56N 34°41' E 135°11'0 0.0
2017-May-15 19:26N 34°41' E 135°11'0 0.0
2017-May-15 18:56N 34°41' E 135°11'0 0.0
2017-May-15 18:26N 34°41' E 135°11'0 0.0
2017-May-15 17:56N 34°41' E 135°11'0 0.0
2017-May-15 17:26N 34°41' E 135°11'0 0.0
2017-May-15 16:50N 34°41' E 135°11'0 0.0
2017-May-15 16:26N 34°41' E 135°11'0 0.0
2017-May-15 15:56N 34°41' E 135°11'0 0.0
2017-May-15 15:26N 34°41' E 135°11'0 0.0
2017-May-15 14:56N 34°41' E 135°11'0 0.0
2017-May-15 14:26N 34°41' E 135°11'0 0.0
2017-May-15 13:26N 34°41' E 135°11'0 0.0
2017-May-15 12:56N 34°41' E 135°11'0 0.0
2017-May-15 12:20N 34°41' E 135°11'0 0.5
2017-May-15 12:00N 34°41' E 135°11'4 7.0
2017-May-15 11:30N 34°37' E 135°09'3 6.6
2017-May-15 11:00N 34°37' E 135°05'4 8.1
2017-May-15 10:30N 34°38' E 135°10'3 5.7
2017-May-15 10:00N 34°41' E 135°11'0 0.0
2017-May-15 09:30N 34°41' E 135°11'2 4.8
2017-May-15 09:00N 34°38' E 135°11'3 6.0
2017-May-15 08:30N 34°37' E 135°07'4 7.7
2017-May-15 08:00N 34°40' E 135°11'1 2.4
2017-May-15 07:30N 34°41' E 135°11'0 0.0
2017-May-15 07:00N 34°41' E 135°11'3 5.8
2017-May-15 06:30N 34°38' E 135°10'0 0.6
2017-May-15 06:00N 34°38' E 135°10'3 5.5
2017-May-15 05:30N 34°41' E 135°11'0 0.0
2017-May-15 04:59N 34°41' E 135°11'2 3.6
2017-May-15 04:30N 34°39' E 135°11'4 7.8
2017-May-15 04:00N 34°37' E 135°07'3 5.1
2017-May-15 03:30N 34°38' E 135°10'3 5.8
2017-May-15 03:00N 34°41' E 135°11'0 0.0
2017-May-15 02:27N 34°41' E 135°11'0 0.0
2017-May-15 01:57N 34°41' E 135°11'0 0.0
2017-May-15 01:27N 34°41' E 135°11'0 0.0
2017-May-15 00:51N 34°41' E 135°11'0 0.0
2017-May-15 00:27N 34°41' E 135°11'0 0.0
2017-May-14 23:45N 34°41' E 135°11'0 0.0
2017-May-14 23:27N 34°41' E 135°11'0 0.0
2017-May-14 22:51N 34°41' E 135°11'0 0.0
2017-May-14 22:27N 34°41' E 135°11'0 0.0
2017-May-14 21:57N 34°41' E 135°11'0 0.0
2017-May-14 21:15N 34°41' E 135°11'0 0.0
2017-May-14 20:57N 34°41' E 135°11'0 0.0
2017-May-14 20:27N 34°41' E 135°11'0 0.0
2017-May-14 19:57N 34°41' E 135°11'0 0.0
2017-May-14 19:27N 34°41' E 135°11'0 0.0
2017-May-14 18:57N 34°41' E 135°11'0 0.0
2017-May-14 18:21N 34°41' E 135°11'0 0.0
2017-May-14 17:57N 34°41' E 135°11'  

Dump ship's entire track history